ADDS METAR Data INFO
IDs: Format: Raw Decoded Include TAF

Data at: 1509 UTC 21 Feb 2018

KEBA 211435Z AUTO 15006KT 10SM BKN009 BKN025 OVC065 22/20 A3045 RMK AO2 T02170197
KEBA 211415Z AUTO 00000KT 10SM BKN007 BKN011 OVC065 21/20 A3045 RMK AO2 T02050195
KEBA 211355Z AUTO 14004KT 7SM SCT007 BKN012 OVC023 20/20 A3045 RMK AO2 T02010195
KEBA 211335Z AUTO 00000KT 7SM SCT008 BKN014 OVC060 20/19 A3045 RMK AO2 T01960192
KEBA 211315Z AUTO 12003KT 5SM BR SCT008 BKN014 OVC060 19/19 A3044 RMK AO2 T01940190
KEBA 211255Z AUTO 13004KT 4SM BR BKN008 BKN012 OVC060 19/19 A3044 RMK AO2 T01900187
KEBA 201515Z AUTO 00000KT 1/2SM FG OVC001 17/17 A3045 RMK AO2 T01690166
KEBA 201450Z AUTO 00000KT 3/4SM BR OVC001 17/16 A3045 RMK AO2 T01650162
KEBA 201435Z AUTO 11003KT 1/2SM FG OVC001 17/16 A3045 RMK AO2 T01650161
KEBA 201415Z AUTO 00000KT 1/2SM FG OVC001 16/16 A3045 RMK AO2 T01610160
KEBA 201355Z AUTO 00000KT 1/4SM FG OVC001 16/16 A3044 RMK AO2 T01570155
KEBA 201335Z AUTO 00000KT 1/4SM FG OVC001 16/15 A3045 RMK AO2 T01550152
KEBA 201315Z AUTO 00000KT 1/4SM FG OVC001 15/15 A3045 RMK AO2 T01540151
KEBA 201255Z AUTO 00000KT 1/4SM FG OVC001 15/15 A3044 RMK AO2 T01520150
KEBA 201235Z AUTO 00000KT 1/2SM FG OVC001 15/15 A3045 RMK AO2 T01510150
KEBA 201215Z AUTO 00000KT 3/4SM BR OVC003 15/15 A3044 RMK AO2 T01500149
KEBA 201155Z AUTO 00000KT 1SM BR OVC003 15/15 A3043 RMK AO2 T01500148 10150 20142
KEBA 201135Z AUTO 00000KT 1 1/4SM BR OVC003 15/15 A3042 RMK AO2 T01500147
KEBA 201115Z AUTO 00000KT 1 1/2SM BR OVC003 15/15 A3042 RMK AO2 T01500147
KEBA 201055Z AUTO 00000KT 1 1/2SM BR OVC003 15/15 A3042 RMK AO2 T01500147
KEBA 201035Z AUTO 00000KT 1 3/4SM BR OVC003 15/15 A3041 RMK AO2 T01500147
KEBA 201015Z AUTO 00000KT 2SM BR OVC003 15/15 A3040 RMK AO2 T01500147
KEBA 200955Z AUTO 00000KT 2 1/2SM BR OVC003 15/15 A3040 RMK AO2 T01490146
KEBA 200935Z AUTO 00000KT 2 1/2SM BR OVC003 15/15 A3040 RMK AO2 T01480146
KEBA 200915Z AUTO 00000KT 3SM BR OVC003 15/15 A3039 RMK AO2 T01470145
KEBA 200855Z AUTO 00000KT 2 1/2SM BR BKN003 OVC010 15/15 A3039 RMK AO2 T01470145
KEBA 200835Z AUTO 00000KT 2 1/2SM BR BKN002 OVC010 15/15 A3039 RMK AO2 T01470145
KEBA 200815Z AUTO 00000KT 1 1/2SM BR OVC002 15/14 A3039 RMK AO2 T01460144
KEBA 200755Z AUTO 00000KT 1 1/4SM BR OVC002 15/14 A3039 RMK AO2 T01460143
KEBA 200735Z AUTO 00000KT 1SM BR OVC002 15/14 A3039 RMK AO2 T01450143
KEBA 200715Z AUTO 00000KT 1SM BR OVC002 15/14 A3039 RMK AO2 T01450143
KEBA 200655Z AUTO 00000KT 1SM BR OVC002 15/14 A3039 RMK AO2 T01450142
KEBA 200635Z AUTO 00000KT 1 1/2SM BR OVC002 14/14 A3040 RMK AO2 T01430141
KEBA 200615Z AUTO 00000KT 1 3/4SM BR OVC002 14/14 A3039 RMK AO2 T01430141
KEBA 200555Z AUTO 00000KT 2 1/2SM BR OVC002 14/14 A3039 RMK AO2 T01420140 10152 20139 401850130
KEBA 200535Z AUTO 00000KT 3SM BR OVC002 14/14 A3039 RMK AO2 T01410140
KEBA 200515Z AUTO 00000KT 3SM BR OVC002 14/14 A3040 RMK AO2 T01410140
KEBA 200455Z AUTO 00000KT 3SM BR OVC002 14/14 A3040 RMK AO2 T01420140
KEBA 200435Z AUTO 00000KT 2SM BR OVC002 14/14 A3040 RMK AO2 T01420140
KEBA 200415Z AUTO 00000KT 1 3/4SM BR OVC002 14/14 A3040 RMK AO2 T01430141
KEBA 200355Z AUTO 03003KT 1 3/4SM BR OVC002 14/14 A3039 RMK AO2 T01430140
KEBA 200335Z AUTO 01003KT 1 1/2SM BR OVC002 14/14 A3039 RMK AO2 T01440141
KEBA 200315Z AUTO 03003KT 2SM BR OVC002 15/14 A3039 RMK AO2 T01450141